Time;durP1;ratioP1;P1;durP2;ratioP2;P2;SDS_P1;SDS_P2;PMS_P1;PMS_P2;Temp;Humidity;BMP_temperature;BMP_pressure;BME280_temperature;BME280_humidity;BME280_pressure;Samples;Min_cycle;Max_cycle;Signal;HPM_P1;HPM_P2
2022/03/24 00:01:47;;;;;;;17.30;11.68;;;;;;;6.74;48.93;100063.09;2622401;54;20035;-61
2022/03/24 00:04:17;;;;;;;18.65;12.40;;;;;;;6.69;49.08;100067.91;2622463;54;20022;-61
2022/03/24 00:06:49;;;;;;;17.92;12.10;;;;;;;6.61;49.36;100073.03;2622022;54;20055;-61
2022/03/24 00:09:19;;;;;;;17.98;11.75;;;;;;;6.53;49.71;100068.47;2622241;54;20034;-62
2022/03/24 00:11:48;;;;;;;17.67;12.85;;;;;;;6.49;49.47;100066.22;2621858;54;20562;-62
2022/03/24 00:14:18;;;;;;;18.33;11.88;;;;;;;6.40;49.54;100063.44;2621916;54;20029;-59
2022/03/24 00:16:48;;;;;;;15.60;11.63;;;;;;;6.37;50.08;100068.16;2621958;54;20050;-61
2022/03/24 00:19:19;;;;;;;19.27;11.43;;;;;;;6.30;49.92;100064.41;2621136;54;20042;-60
2022/03/24 00:21:52;;;;;;;18.98;11.98;;;;;;;6.25;50.24;100056.94;2621609;54;20034;-61
2022/03/24 00:24:21;;;;;;;16.67;11.90;;;;;;;6.23;50.61;100061.47;2622282;54;20037;-61
2022/03/24 00:26:51;;;;;;;19.65;12.15;;;;;;;6.21;50.65;100060.78;2623840;54;20054;-61
2022/03/24 00:29:21;;;;;;;14.68;11.10;;;;;;;6.19;50.64;100054.81;2623256;54;20027;-60
2022/03/24 00:31:50;;;;;;;17.70;11.98;;;;;;;6.17;50.66;100059.41;2623809;54;20030;-61
2022/03/24 00:34:20;;;;;;;16.45;11.85;;;;;;;6.20;50.49;100061.72;2623480;39;20404;-59
2022/03/24 00:36:53;;;;;;;19.98;11.80;;;;;;;6.31;50.89;100060.81;2619822;54;20526;-60
2022/03/24 00:39:22;;;;;;;20.10;12.73;;;;;;;6.40;50.31;100055.56;2623054;47;20027;-60
2022/03/24 00:41:52;;;;;;;15.90;10.82;;;;;;;6.39;50.20;100055.72;2622297;54;20059;-59
2022/03/24 00:44:22;;;;;;;16.75;11.35;;;;;;;6.47;49.96;100055.88;2622038;54;20034;-66
2022/03/24 00:46:51;;;;;;;17.05;12.80;;;;;;;6.54;49.55;100061.41;2623234;54;20046;-60
2022/03/24 00:49:21;;;;;;;14.18;11.80;;;;;;;6.36;50.07;100058.59;2623247;54;20034;-60
2022/03/24 00:51:54;;;;;;;19.40;12.10;;;;;;;6.22;50.35;100059.00;2623107;54;20519;-61
2022/03/24 00:54:23;;;;;;;15.93;12.52;;;;;;;6.08;50.24;100054.91;2623717;54;20034;-61
2022/03/24 00:56:53;;;;;;;15.43;11.25;;;;;;;5.98;50.74;100044.41;2623200;54;20071;-60
2022/03/24 00:59:25;;;;;;;17.48;11.93;;;;;;;5.93;51.11;100052.69;2622908;54;20034;-60
2022/03/24 01:01:55;;;;;;;18.48;12.15;;;;;;;5.93;51.06;100055.31;2623243;54;20049;-62
2022/03/24 01:04:25;;;;;;;18.40;13.60;;;;;;;5.94;51.30;100049.06;2622527;31;20559;-61
2022/03/24 01:06:57;;;;;;;19.55;12.43;;;;;;;5.91;51.55;100045.84;2622855;54;20038;-62
2022/03/24 01:09:27;;;;;;;20.08;13.48;;;;;;;5.88;51.67;100041.72;2622845;54;20036;-61
2022/03/24 01:11:56;;;;;;;21.15;13.65;;;;;;;5.77;52.02;100043.59;2624645;46;20054;-61
2022/03/24 01:14:26;;;;;;;19.10;14.00;;;;;;;5.55;52.53;100048.06;2623476;47;20026;-59
2022/03/24 01:16:57;;;;;;;21.75;13.93;;;;;;;5.53;52.39;100042.09;2624166;36;20518;-61
2022/03/24 01:19:27;;;;;;;21.42;12.88;;;;;;;5.53;52.53;100043.88;2622172;47;20037;-61
2022/03/24 01:21:59;;;;;;;17.73;12.88;;;;;;;5.54;52.59;100050.78;2623968;54;20071;-60
2022/03/24 01:24:30;;;;;;;19.95;12.82;;;;;;;5.47;52.90;100040.84;2622897;54;20038;-60
2022/03/24 01:26:59;;;;;;;18.65;13.90;;;;;;;5.46;52.55;100041.78;2623233;54;20034;-63
2022/03/24 01:29:29;;;;;;;17.85;12.85;;;;;;;5.44;52.82;100046.34;2622331;54;20035;-61
2022/03/24 01:31:59;;;;;;;19.25;13.10;;;;;;;5.36;53.21;100045.31;2621974;54;20074;-62
2022/03/24 01:34:29;;;;;;;18.10;13.48;;;;;;;5.43;52.99;100043.84;2622871;39;20508;-60
2022/03/24 01:37:01;;;;;;;19.65;12.57;;;;;;;5.47;53.00;100043.47;2622872;54;20027;-63
2022/03/24 01:39:31;;;;;;;18.00;13.88;;;;;;;5.45;52.95;100041.91;2623007;46;20049;-61
2022/03/24 01:42:01;;;;;;;20.23;12.73;;;;;;;5.30;53.57;100037.94;2622735;46;20053;-63
2022/03/24 01:44:32;;;;;;;17.70;12.88;;;;;;;5.08;54.07;100039.75;2622962;54;20082;-62
2022/03/24 01:47:05;;;;;;;22.98;14.73;;;;;;;5.02;54.07;100040.25;2623429;39;20085;-62
2022/03/24 01:49:38;;;;;;;18.38;12.32;;;;;;;5.04;54.34;100037.50;2623144;47;20026;-62
2022/03/24 01:52:12;;;;;;;16.80;12.23;;;;;;;5.14;54.17;100039.25;2623075;47;20042;-63
2022/03/24 01:54:42;;;;;;;;;;;;;;;5.18;54.03;100029.31;2623113;39;20406;-61
2022/03/24 01:57:17;;;;;;;22.63;13.97;;;;;;;5.10;54.05;100029.13;2623038;54;20439;-61
2022/03/24 01:59:48;;;;;;;17.98;12.00;;;;;;;4.98;54.58;100036.25;2622884;31;20494;-60
2022/03/24 02:02:18;;;;;;;15.63;11.23;;;;;;;4.94;54.49;100034.81;2621994;51;20038;-62
2022/03/24 02:04:48;;;;;;;16.63;12.98;;;;;;;4.90;54.18;100033.41;2623357;54;20036;-61
2022/03/24 02:07:24;;;;;;;22.52;12.77;;;;;;;4.87;54.09;100033.66;2623775;54;20086;-62
2022/03/24 02:09:56;;;;;;;17.60;12.20;;;;;;;4.87;54.25;100033.66;2624095;54;20083;-60
2022/03/24 02:12:28;;;;;;;18.67;12.02;;;;;;;4.83;54.22;100029.63;2623638;54;20531;-61
2022/03/24 02:14:59;;;;;;;17.83;12.30;;;;;;;4.91;54.12;100027.22;2623669;54;20542;-61
2022/03/24 02:17:30;;;;;;;15.73;11.38;;;;;;;4.89;54.36;100029.09;2622216;54;20079;-60
2022/03/24 02:20:00;;;;;;;19.52;11.38;;;;;;;4.91;54.37;100029.84;2620109;54;20026;-61
2022/03/24 02:22:32;;;;;;;16.60;12.18;;;;;;;4.90;54.02;100025.56;2620513;54;20026;-61
2022/03/24 02:25:02;;;;;;;18.30;12.45;;;;;;;4.78;54.04;100026.56;2622629;54;20030;-61
2022/03/24 02:27:32;;;;;;;16.25;11.93;;;;;;;4.69;54.39;100028.13;2623866;54;20022;-62
2022/03/24 02:30:02;;;;;;;18.30;12.80;;;;;;;4.65;54.23;100024.94;2624091;54;20062;-61
2022/03/24 02:32:31;;;;;;;14.45;11.43;;;;;;;4.65;54.69;100027.56;2623328;54;20042;-63
2022/03/24 02:35:01;;;;;;;17.30;12.07;;;;;;;4.72;54.95;100028.69;2622908;54;20027;-61
2022/03/24 02:37:33;;;;;;;15.73;11.85;;;;;;;4.88;54.44;100030.91;2623234;54;20075;-62
2022/03/24 02:40:03;;;;;;;16.88;13.05;;;;;;;4.80;53.87;100025.47;2623095;54;20030;-62
2022/03/24 02:42:33;;;;;;;18.35;13.20;;;;;;;4.63;54.12;100029.47;2623293;31;20480;-62
2022/03/24 02:45:06;;;;;;;17.58;12.95;;;;;;;4.53;54.89;100028.56;2622535;54;20059;-62
2022/03/24 02:47:36;;;;;;;16.95;13.43;;;;;;;4.52;54.75;100024.25;2622097;54;20034;-61
2022/03/24 02:50:09;;;;;;;17.58;12.02;;;;;;;4.55;55.62;100026.63;2621764;54;20038;-61
2022/03/24 02:52:41;;;;;;;13.95;11.48;;;;;;;4.74;55.09;100027.78;2623196;39;20455;-62
2022/03/24 02:55:11;;;;;;;14.77;11.63;;;;;;;4.87;54.64;100026.63;2622330;54;20026;-62
2022/03/24 02:57:41;;;;;;;23.77;13.07;;;;;;;4.87;54.50;100026.63;2622571;54;20074;-62
2022/03/24 03:00:11;;;;;;;17.80;13.40;;;;;;;4.72;54.59;100026.09;2623154;54;20075;-62
2022/03/24 03:02:41;;;;;;;17.27;12.77;;;;;;;4.58;54.47;100033.41;2623614;54;20026;-62
2022/03/24 03:05:11;;;;;;;19.15;13.50;;;;;;;4.28;55.32;100029.66;2623052;54;20037;-62
2022/03/24 03:07:44;;;;;;;19.05;13.63;;;;;;;4.20;56.06;100042.53;2621898;54;20030;-62
2022/03/24 03:10:14;;;;;;;18.38;13.88;;;;;;;4.25;55.69;100037.78;2621427;54;20030;-62
2022/03/24 03:12:46;;;;;;;19.63;13.02;;;;;;;4.29;55.81;100030.53;2623628;39;20443;-62
2022/03/24 03:15:16;;;;;;;21.15;13.98;;;;;;;4.29;55.53;100033.16;2623311;54;20038;-62
2022/03/24 03:17:45;;;;;;;19.20;13.90;;;;;;;4.21;56.06;100031.97;2623290;39;20443;-62
2022/03/24 03:20:15;;;;;;;19.75;13.88;;;;;;;4.07;56.20;100039.22;2623436;54;20037;-61
2022/03/24 03:22:49;;;;;;;17.40;12.88;;;;;;;3.97;56.49;100041.75;2623527;54;20030;-61
2022/03/24 03:25:20;;;;;;;19.17;13.52;;;;;;;3.98;56.70;100048.63;2623131;54;20039;-63
2022/03/24 03:27:49;;;;;;;16.13;11.90;;;;;;;3.96;56.93;100045.31;2623759;54;20030;-62
2022/03/24 03:30:19;;;;;;;18.90;12.85;;;;;;;3.95;56.79;100044.47;2623538;39;20109;-61
2022/03/24 03:32:48;;;;;;;21.23;13.48;;;;;;;3.91;57.01;100047.44;2623627;54;20026;-60
2022/03/24 03:35:18;;;;;;;20.73;13.23;;;;;;;3.85;57.18;100045.31;2622436;54;20067;-61
2022/03/24 03:37:50;;;;;;;17.88;12.90;;;;;;;3.80;57.02;100037.84;2623200;54;20045;-61
2022/03/24 03:40:20;;;;;;;19.67;13.55;;;;;;;3.79;57.27;100037.94;2623005;54;20088;-60
2022/03/24 03:42:51;;;;;;;18.58;13.00;;;;;;;3.77;57.00;100042.47;2623359;54;20041;-63
2022/03/24 03:45:21;;;;;;;16.27;12.27;;;;;;;3.77;57.06;100047.69;2623751;54;20027;-61
2022/03/24 03:47:51;;;;;;;18.55;13.38;;;;;;;3.77;57.35;100045.91;2622391;54;20018;-59
2022/03/24 03:50:21;;;;;;;17.92;12.52;;;;;;;3.71;57.20;100049.84;2620936;51;20030;-61
2022/03/24 03:52:53;;;;;;;17.98;12.25;;;;;;;3.67;57.31;100051.03;2621503;54;20091;-60
2022/03/24 03:55:23;;;;;;;18.95;12.63;;;;;;;3.72;57.41;100050.66;2621917;54;20535;-61
2022/03/24 03:57:52;;;;;;;16.67;13.00;;;;;;;3.78;57.13;100050.19;2621810;54;20030;-58
2022/03/24 04:03:05;;;;;;;17.15;12.18;;;;;;;4.01;57.26;100039.72;2620948;54;20030;-61
2022/03/24 04:05:36;;;;;;;18.60;12.00;;;;;;;4.02;56.69;100050.06;2621849;54;20097;-61
2022/03/24 04:08:09;;;;;;;18.40;12.23;;;;;;;3.99;56.92;100042.44;2622417;54;20041;-61
2022/03/24 04:10:39;;;;;;;20.08;12.80;;;;;;;4.04;56.57;100042.94;2623775;54;20039;-61
2022/03/24 04:13:11;;;;;;;17.67;11.75;;;;;;;4.05;56.12;100038.53;2623970;31;20543;-61
2022/03/24 04:15:41;;;;;;;18.38;13.20;;;;;;;4.00;56.16;100048.50;2623307;54;20038;-61
2022/03/24 04:18:10;;;;;;;17.35;12.57;;;;;;;3.95;56.41;100043.63;2623682;54;20042;-61
2022/03/24 04:20:40;;;;;;;23.52;13.77;;;;;;;3.92;56.48;100046.50;2623626;54;20046;-62
2022/03/24 04:23:14;;;;;;;20.50;12.88;;;;;;;3.83;56.12;100045.41;2622947;54;20038;-62
2022/03/24 04:25:43;;;;;;;19.13;14.10;;;;;;;3.71;56.49;100041.13;2621462;54;20039;-61
2022/03/24 04:28:14;;;;;;;19.25;12.77;;;;;;;3.57;57.10;100042.22;2621517;46;20108;-61
2022/03/24 04:30:44;;;;;;;17.95;12.32;;;;;;;3.53;57.32;100042.56;2621077;54;20038;-61
2022/03/24 04:33:15;;;;;;;16.92;12.35;;;;;;;3.53;57.49;100045.19;2620677;47;20027;-63
2022/03/24 04:35:45;;;;;;;19.45;13.73;;;;;;;3.57;57.75;100042.22;2620873;54;20038;-61
2022/03/24 04:38:17;;;;;;;16.23;13.13;;;;;;;3.57;57.71;100046.59;2622965;31;20519;-62
2022/03/24 04:40:47;;;;;;;19.40;14.00;;;;;;;3.48;57.46;100050.75;2621449;54;20605;-61
2022/03/24 04:43:17;;;;;;;19.15;13.07;;;;;;;3.35;57.76;100050.88;2620461;54;20039;-62
2022/03/24 04:45:49;;;;;;;19.05;13.52;;;;;;;3.35;58.15;100047.41;2620391;54;20039;-61
2022/03/24 04:48:19;;;;;;;22.13;14.18;;;;;;;3.32;58.18;100052.88;2620938;54;20034;-61
2022/03/24 04:50:49;;;;;;;19.13;14.73;;;;;;;3.24;58.04;100048.22;2620148;54;20027;-63
2022/03/24 04:53:21;;;;;;;16.98;13.48;;;;;;;3.16;58.85;100048.78;2620811;54;20558;-63
2022/03/24 04:55:50;;;;;;;20.45;13.65;;;;;;;3.25;58.62;100062.94;2620745;54;20078;-63
2022/03/24 04:58:20;;;;;;;21.13;14.05;;;;;;;3.37;58.76;100058.56;2621253;54;20050;-63
2022/03/24 05:00:50;;;;;;;20.50;14.15;;;;;;;3.45;58.31;100062.28;2622563;54;20554;-62
2022/03/24 05:03:20;;;;;;;19.83;14.05;;;;;;;3.51;58.12;100058.38;2622902;54;20018;-63
2022/03/24 05:05:50;;;;;;;20.67;15.35;;;;;;;3.43;57.70;100072.03;2622621;54;20031;-63
2022/03/24 05:08:23;;;;;;;24.63;14.77;;;;;;;3.26;58.48;100066.38;2622944;54;20082;-62
2022/03/24 05:10:52;;;;;;;23.25;14.82;;;;;;;3.30;59.05;100065.22;2622453;54;20039;-63
2022/03/24 05:13:22;;;;;;;21.73;15.02;;;;;;;3.36;58.65;100065.59;2622681;54;20039;-61
2022/03/24 05:15:51;;;;;;;23.40;15.50;;;;;;;3.36;58.83;100064.75;2623622;39;20456;-64
2022/03/24 05:18:21;;;;;;;21.48;15.35;;;;;;;3.32;58.50;100064.16;2624090;54;20121;-62
2022/03/24 05:20:51;;;;;;;21.45;14.63;;;;;;;3.21;58.76;100061.50;2623759;54;20035;-62
2022/03/24 05:23:23;;;;;;;25.33;14.63;;;;;;;3.23;59.24;100062.25;2623856;54;20027;-61
2022/03/24 05:25:53;;;;;;;21.17;14.82;;;;;;;3.28;58.95;100062.72;2623380;54;20034;-62
2022/03/24 05:28:22;;;;;;;19.85;14.32;;;;;;;3.21;58.59;100061.50;2624070;54;20030;-62
2022/03/24 05:30:52;;;;;;;20.67;14.27;;;;;;;3.16;58.95;100066.25;2622411;54;20037;-62
2022/03/24 05:33:22;;;;;;;18.48;13.63;;;;;;;3.15;58.89;100073.25;2623914;31;20427;-62
2022/03/24 05:35:51;;;;;;;19.45;14.35;;;;;;;3.09;59.24;100072.88;2623108;54;20022;-61
2022/03/24 05:38:23;;;;;;;22.50;14.77;;;;;;;3.04;59.18;100067.16;2623938;54;20034;-62
2022/03/24 05:40:54;;;;;;;22.50;14.02;;;;;;;3.00;59.27;100071.78;2624184;54;20038;-62
2022/03/24 05:43:23;;;;;;;20.17;13.50;;;;;;;3.00;59.27;100063.94;2623767;54;20098;-63
2022/03/24 05:45:53;;;;;;;20.38;14.07;;;;;;;2.98;59.49;100069.28;2623856;54;20035;-62
2022/03/24 05:48:23;;;;;;;22.45;14.15;;;;;;;2.96;59.24;100068.56;2623984;39;20468;-61
2022/03/24 05:51:16;;;;;;;21.10;14.40;;;;;;;2.94;59.55;100072.25;2621567;47;20073;-62
2022/03/24 05:53:49;;;;;;;20.55;14.38;;;;;;;2.95;59.71;100073.91;2623454;54;20030;-62
2022/03/24 05:56:19;;;;;;;23.30;13.73;;;;;;;3.04;59.73;100068.00;2623762;54;20030;-61
2022/03/24 05:58:49;;;;;;;23.88;15.70;;;;;;;3.19;59.50;100066.84;2621772;54;20027;-63
2022/03/24 06:01:20;;;;;;;20.95;14.52;;;;;;;3.27;59.43;100071.50;2621732;54;20027;-62
2022/03/24 06:03:53;;;;;;;19.80;13.77;;;;;;;3.29;59.10;100071.38;2621910;47;20022;-61
2022/03/24 06:06:25;;;;;;;27.35;15.35;;;;;;;3.25;58.89;100078.63;2622772;54;20022;-60
2022/03/24 06:08:58;;;;;;;25.20;14.77;;;;;;;3.21;59.40;100077.19;2621899;54;20014;-61
2022/03/24 06:11:28;;;;;;;20.03;13.83;;;;;;;3.25;59.43;100083.00;2619469;47;20225;-60
2022/03/24 06:13:58;;;;;;;23.45;14.18;;;;;;;3.41;59.46;100083.53;2621468;39;20664;-63
2022/03/24 06:16:28;;;;;;;21.30;15.00;;;;;;;3.49;58.80;100075.94;2622150;54;20034;-63
2022/03/24 06:18:59;;;;;;;22.38;14.90;;;;;;;3.54;58.89;100086.88;2621996;54;20034;-60
2022/03/24 06:21:29;;;;;;;22.52;14.80;;;;;;;3.69;58.72;100080.50;2621674;54;20034;-62
2022/03/24 06:24:02;;;;;;;26.77;15.90;;;;;;;3.82;58.52;100079.56;2621960;54;20038;-62
2022/03/24 06:26:32;;;;;;;23.85;14.93;;;;;;;3.89;57.73;100085.97;2622591;54;20034;-62
2022/03/24 06:29:01;;;;;;;26.02;15.77;;;;;;;3.89;57.95;100078.13;2622861;54;20565;-62
2022/03/24 06:31:31;;;;;;;20.77;13.68;;;;;;;3.91;57.81;100084.06;2622303;54;20038;-62
2022/03/24 06:34:01;;;;;;;21.33;13.90;;;;;;;4.05;57.99;100080.41;2622115;54;20042;-62
2022/03/24 06:36:35;;;;;;;23.80;15.45;;;;;;;4.18;56.82;100078.47;2621931;54;20541;-61
2022/03/24 06:39:08;;;;;;;29.77;15.52;;;;;;;4.22;57.40;100074.66;2622855;54;20039;-61
2022/03/24 06:41:38;;;;;;;23.23;16.88;;;;;;;4.30;56.69;100063.59;2622411;54;20070;-61
2022/03/24 06:44:08;;;;;;;22.58;15.25;;;;;;;4.29;56.53;100067.16;2621798;54;20047;-61
2022/03/24 06:46:38;;;;;;;23.67;16.17;;;;;;;4.25;56.60;100068.38;2621241;54;20038;-61
2022/03/24 06:49:09;;;;;;;25.13;16.55;;;;;;;4.20;56.72;100064.34;2621319;54;20026;-64
2022/03/24 06:51:39;;;;;;;20.27;14.93;;;;;;;4.18;56.52;100075.84;2620886;54;20023;-62
2022/03/24 06:54:11;;;;;;;25.42;17.55;;;;;;;4.16;56.49;100075.13;2620858;54;20569;-61
2022/03/24 06:56:41;;;;;;;21.63;16.60;;;;;;;4.22;56.88;100066.81;2621331;54;20022;-64
2022/03/24 06:59:10;;;;;;;19.02;14.77;;;;;;;4.34;56.70;100078.94;2621052;54;20030;-63
2022/03/24 07:01:40;;;;;;;23.75;15.88;;;;;;;4.48;56.58;100069.97;2622178;39;20434;-63
2022/03/24 07:04:10;;;;;;;23.83;15.52;;;;;;;4.60;56.56;100068.16;2622792;54;20046;-62
2022/03/24 07:06:42;;;;;;;21.70;15.82;;;;;;;4.69;56.13;100070.03;2622866;54;20034;-63
2022/03/24 07:09:14;;;;;;;22.98;16.58;;;;;;;4.87;56.12;100067.72;2623011;54;20039;-63
2022/03/24 07:11:43;;;;;;;22.98;16.33;;;;;;;4.96;56.03;100075.66;2623379;54;20038;-61
2022/03/24 07:14:13;;;;;;;21.65;15.10;;;;;;;5.14;55.81;100073.31;2622941;54;20550;-63
2022/03/24 07:16:43;;;;;;;25.20;17.52;;;;;;;5.31;55.53;100076.34;2621805;54;20038;-62
2022/03/24 07:19:12;;;;;;;26.92;15.77;;;;;;;5.37;54.92;100074.03;2622732;54;20034;-62
2022/03/24 07:21:42;;;;;;;26.63;16.17;;;;;;;5.42;54.85;100071.84;2621433;54;20035;-61
2022/03/24 07:24:15;;;;;;;19.52;15.90;;;;;;;5.52;54.94;100073.72;2620446;54;20038;-62
2022/03/24 07:26:45;;;;;;;26.13;17.17;;;;;;;5.69;54.96;100062.63;2620217;39;20450;-61
2022/03/24 07:29:14;;;;;;;23.70;17.23;;;;;;;5.90;54.71;100066.03;2618827;54;20061;-61
2022/03/24 07:31:44;;;;;;;22.42;15.75;;;;;;;6.01;53.95;100066.94;2619961;39;20769;-62
2022/03/24 07:34:14;;;;;;;26.55;16.80;;;;;;;6.16;54.06;100062.97;2619151;54;20049;-62
2022/03/24 07:36:44;;;;;;;25.98;17.73;;;;;;;6.31;53.67;100066.88;2620510;54;20027;-62
2022/03/24 07:39:18;;;;;;;25.63;19.05;;;;;;;6.46;53.18;100075.22;2620257;54;20027;-62
2022/03/24 07:41:47;;;;;;;28.33;18.15;;;;;;;6.46;53.20;100075.22;2620271;54;20122;-62
2022/03/24 07:44:17;;;;;;;26.25;17.60;;;;;;;6.60;52.98;100074.00;2620305;54;20034;-62
2022/03/24 07:46:47;;;;;;;29.13;18.33;;;;;;;6.80;53.12;100066.97;2620998;54;20049;-61
2022/03/24 07:49:16;;;;;;;25.05;18.40;;;;;;;6.98;52.96;100067.97;2621094;54;20023;-63
2022/03/24 07:51:46;;;;;;;29.13;20.15;;;;;;;7.16;52.22;100068.91;2621133;39;20419;-62
2022/03/24 07:54:18;;;;;;;29.50;18.83;;;;;;;7.28;52.11;100069.59;2619843;54;20042;-64
2022/03/24 07:56:48;;;;;;;32.38;19.90;;;;;;;7.41;51.73;100069.28;2620297;54;20151;-63
2022/03/24 07:59:18;;;;;;;27.92;18.67;;;;;;;7.55;51.09;100070.63;2620041;54;20569;-63
2022/03/24 08:01:47;;;;;;;27.95;18.20;;;;;;;7.58;50.89;100070.34;2618577;54;20562;-62
2022/03/24 08:04:17;;;;;;;26.45;17.92;;;;;;;7.71;50.75;100073.50;2618279;54;20134;-65
2022/03/24 08:06:47;;;;;;;29.75;17.88;;;;;;;7.89;50.90;100071.78;2618241;39;20406;-63
2022/03/24 08:09:19;;;;;;;25.77;17.70;;;;;;;8.06;50.44;100070.19;2619242;54;20551;-63
2022/03/24 08:11:49;;;;;;;28.98;18.83;;;;;;;8.23;50.01;100070.41;2622542;54;20542;-63
2022/03/24 08:14:19;;;;;;;32.47;20.45;;;;;;;8.35;49.71;100074.50;2621987;54;20041;-64
2022/03/24 08:16:48;;;;;;;27.98;17.98;;;;;;;8.48;49.08;100064.47;2622390;54;20038;-62
2022/03/24 08:19:18;;;;;;;28.83;17.83;;;;;;;8.63;48.97;100075.34;2622631;36;20091;-62
2022/03/24 08:21:48;;;;;;;28.08;17.25;;;;;;;8.76;49.18;100061.78;2622056;54;20041;-61
2022/03/24 08:24:20;;;;;;;26.88;18.33;;;;;;;8.89;48.57;100067.50;2621397;54;20030;-64
2022/03/24 08:26:50;;;;;;;30.88;18.52;;;;;;;9.03;48.24;100066.16;2622392;54;20622;-60
2022/03/24 08:29:19;;;;;;;26.13;17.92;;;;;;;9.16;48.15;100070.06;2621690;54;20051;-61
2022/03/24 08:31:49;;;;;;;33.35;19.70;;;;;;;9.32;47.84;100068.53;2622491;54;20027;-61
2022/03/24 08:34:19;;;;;;;38.92;19.65;;;;;;;9.51;47.38;100062.22;2622149;54;20029;-61
2022/03/24 08:36:49;;;;;;;32.28;19.20;;;;;;;9.58;47.50;100060.63;2622349;54;20030;-61
2022/03/24 08:39:21;;;;;;;30.73;19.13;;;;;;;9.74;46.85;100065.19;2622231;54;20046;-62
2022/03/24 08:41:51;;;;;;;28.67;20.05;;;;;;;9.88;47.12;100062.78;2622083;54;20041;-62
2022/03/24 08:44:20;;;;;;;33.08;19.60;;;;;;;10.04;46.50;100067.34;2622210;54;20038;-63
2022/03/24 08:46:50;;;;;;;33.42;22.08;;;;;;;10.24;46.34;100054.66;2621047;54;20026;-60
2022/03/24 08:49:20;;;;;;;37.13;18.77;;;;;;;10.42;45.67;100067.84;2621637;54;20030;-61
2022/03/24 08:51:49;;;;;;;33.20;20.63;;;;;;;10.53;45.59;100062.25;2622107;54;20040;-60
2022/03/24 08:54:22;;;;;;;35.60;21.98;;;;;;;10.72;44.85;100061.13;2621478;54;20083;-64
2022/03/24 08:56:51;;;;;;;39.05;23.83;;;;;;;10.88;44.53;100053.19;2621985;54;20041;-62
2022/03/24 08:59:21;;;;;;;39.60;24.13;;;;;;;11.06;43.31;100060.16;2621743;54;20578;-61
2022/03/24 09:01:50;;;;;;;37.72;22.42;;;;;;;11.15;43.10;100059.19;2621948;54;20556;-60
2022/03/24 09:04:26;;;;;;;31.58;20.80;;;;;;;11.32;43.02;100062.66;2621720;54;20033;-62
2022/03/24 09:06:56;;;;;;;34.15;21.42;;;;;;;11.49;43.12;100060.81;2621378;54;20042;-61
2022/03/24 09:09:29;;;;;;;39.53;22.10;;;;;;;11.62;42.41;100061.94;2621830;54;20064;-60
2022/03/24 09:11:58;;;;;;;37.38;22.33;;;;;;;11.74;42.34;100058.94;2621904;54;20546;-60
2022/03/24 09:14:28;;;;;;;33.28;21.80;;;;;;;11.81;41.94;100062.56;2620914;54;20573;-62
2022/03/24 09:16:57;;;;;;;37.83;22.67;;;;;;;11.95;41.91;100059.22;2621472;54;20045;-64
2022/03/24 09:19:27;;;;;;;43.88;23.10;;;;;;;12.11;41.41;100053.03;2619233;54;20026;-61
2022/03/24 09:21:57;;;;;;;34.45;21.40;;;;;;;12.25;40.87;100052.34;2618827;54;20030;-61
2022/03/24 09:24:36;;;;;;;35.75;21.20;;;;;;;12.39;40.88;100051.59;2618611;54;20041;-63
2022/03/24 09:27:07;;;;;;;34.47;21.52;;;;;;;12.47;40.60;100047.25;2619158;54;20034;-62
2022/03/24 09:29:36;;;;;;;35.42;21.02;;;;;;;12.57;40.20;100042.53;2619905;54;20091;-61
2022/03/24 09:32:12;;;;;;;35.40;20.88;;;;;;;12.74;39.99;100054.72;2619933;46;20033;-61
2022/03/24 09:34:42;;;;;;;29.42;20.75;;;;;;;13.02;39.57;100040.88;2621828;39;20464;-63
2022/03/24 09:37:18;;;;;;;33.85;21.88;;;;;;;13.19;38.76;100039.78;2621054;54;20034;-63
2022/03/24 09:39:52;;;;;;;36.83;21.67;;;;;;;13.29;38.67;100044.84;2620817;54;20030;-63
2022/03/24 09:42:22;;;;;;;31.67;20.85;;;;;;;13.44;38.49;100040.41;2621691;54;20035;-63
2022/03/24 09:44:51;;;;;;;34.85;21.25;;;;;;;13.59;38.29;100040.41;2621437;54;20031;-64
2022/03/24 09:47:22;;;;;;;34.85;22.42;;;;;;;13.69;37.48;100034.84;2620285;54;20046;-64
2022/03/24 09:49:51;;;;;;;36.47;21.83;;;;;;;13.75;37.28;100042.06;2620099;54;20034;-64
2022/03/24 09:52:21;;;;;;;31.92;21.38;;;;;;;13.85;37.52;100038.13;2620482;54;20038;-62
2022/03/24 09:54:55;;;;;;;33.20;20.20;;;;;;;14.01;37.29;100042.44;2620453;54;20034;-63
2022/03/24 09:57:25;;;;;;;;;;;;;;;14.15;37.32;100038.13;2619905;54;20082;-63
2022/03/24 09:59:55;;;;;;;31.23;19.00;;;;;;;14.25;36.82;100038.66;2621236;39;20719;-63
2022/03/24 10:02:24;;;;;;;39.63;22.38;;;;;;;14.43;36.51;100035.59;2619831;54;20034;-63
2022/03/24 10:04:57;;;;;;;36.53;21.58;;;;;;;14.53;36.30;100037.97;2620390;54;20022;-63
2022/03/24 10:07:28;;;;;;;32.78;21.88;;;;;;;14.56;35.80;100034.94;2619802;54;20045;-62
2022/03/24 10:10:02;;;;;;;35.03;22.35;;;;;;;14.66;35.61;100030.16;2621273;39;20423;-63
2022/03/24 10:12:36;;;;;;;30.17;20.75;;;;;;;14.76;35.12;100025.31;2620229;54;20050;-62
2022/03/24 10:15:09;;;;;;;38.20;22.45;;;;;;;14.85;35.27;100024.16;2620461;54;20039;-63
2022/03/24 10:17:41;;;;;;;30.85;21.42;;;;;;;15.04;34.04;100027.22;2620313;54;20031;-63
2022/03/24 10:20:15;;;;;;;30.67;19.52;;;;;;;15.16;33.95;100016.88;2620642;54;20084;-63
2022/03/24 10:22:55;;;;;;;33.42;19.98;;;;;;;15.22;33.68;100022.22;2619688;54;20026;-63
2022/03/24 10:25:28;;;;;;;33.03;21.50;;;;;;;15.33;32.94;100019.03;2619003;54;20038;-65
2022/03/24 10:28:05;;;;;;;;;;;;;;;15.41;32.94;100011.94;2620926;39;20430;-63
2022/03/24 10:30:48;;;;;;;31.67;20.35;;;;;;;15.49;33.09;100019.78;2620781;54;19971;-62
2022/03/24 10:33:32;;;;;;;42.38;20.80;;;;;;;15.61;32.86;100016.38;2620926;54;20027;-63
2022/03/24 10:36:12;;;;;;;30.50;19.63;;;;;;;15.66;32.80;100015.81;2619726;54;20018;-63
2022/03/24 10:38:43;;;;;;;32.65;21.58;;;;;;;15.70;32.67;100009.06;2620372;54;20027;-63
2022/03/24 10:41:21;;;;;;;30.05;20.10;;;;;;;15.85;32.42;100014.28;2620479;54;20035;-61
2022/03/24 10:43:53;;;;;;;32.28;20.88;;;;;;;16.00;32.36;100004.31;2619543;54;20026;-65
2022/03/24 10:46:26;;;;;;;31.73;19.77;;;;;;;16.19;31.90;100013.41;2619351;54;20026;-60
2022/03/24 10:48:56;;;;;;;28.48;18.98;;;;;;;16.27;31.18;99997.22;2618391;54;20022;-61
2022/03/24 10:51:27;;;;;;;29.92;18.90;;;;;;;16.31;31.44;100003.81;2619038;54;20078;-61
2022/03/24 10:54:12;;;;;;;31.48;19.35;;;;;;;16.32;30.73;99997.44;2619219;54;20038;-62
2022/03/24 10:56:48;;;;;;;29.85;19.63;;;;;;;16.48;30.21;99995.44;2619349;54;20034;-62
2022/03/24 10:59:18;;;;;;;24.67;17.80;;;;;;;16.71;29.13;100003.09;2619007;54;20034;-62
2022/03/24 11:01:49;;;;;;;26.58;17.75;;;;;;;16.86;28.37;99994.91;2620024;39;20420;-63
2022/03/24 11:04:19;;;;;;;24.45;17.40;;;;;;;16.93;28.28;99995.72;2619039;54;20067;-65
2022/03/24 11:06:52;;;;;;;25.20;16.52;;;;;;;16.98;28.14;99994.13;2618926;54;20549;-61
2022/03/24 11:09:26;;;;;;;28.37;17.47;;;;;;;17.00;28.22;99997.38;2619213;54;20098;-62
2022/03/24 11:12:31;;;;;;;29.63;19.05;;;;;;;17.15;27.62;99996.38;2618849;54;20605;-64
2022/03/24 11:15:09;;;;;;;25.83;18.05;;;;;;;17.14;27.95;99998.19;2619223;54;20026;-63
2022/03/24 11:17:41;;;;;;;28.88;18.15;;;;;;;17.02;27.76;99992.69;2619861;54;20038;-62
2022/03/24 11:20:20;;;;;;;28.45;19.40;;;;;;;17.07;28.16;99990.19;2619644;54;20534;-63
2022/03/24 11:22:53;;;;;;;26.60;17.88;;;;;;;17.10;27.40;99991.63;2620190;54;20042;-63
2022/03/24 11:25:24;;;;;;;26.47;18.33;;;;;;;17.13;27.73;99979.72;2621271;54;20030;-62
2022/03/24 11:27:58;;;;;;;25.77;17.45;;;;;;;17.33;27.01;99983.19;2620387;54;20038;-64
2022/03/24 11:30:28;;;;;;;31.13;20.02;;;;;;;17.32;27.21;99976.22;2619924;54;20038;-64
2022/03/24 11:32:58;;;;;;;31.75;20.38;;;;;;;17.34;27.30;99976.81;2619907;54;20031;-62
2022/03/24 11:35:28;;;;;;;29.35;21.25;;;;;;;17.45;26.97;99970.00;2619235;54;20026;-65
2022/03/24 11:37:58;;;;;;;32.45;21.17;;;;;;;17.47;26.86;99962.59;2620874;39;20442;-62